LFLN 221130Z AUTO 31006KT 270V340 CAVOK 11/03 Q1033 NOSIG

ElémentsDécodage
LFLN Station météo située sur l'aérodrome de SAINT-YAN
221130Z émis le 22 du mois à 11h30 UTC
AUTO Bulletin édité par un automate
31006KT vent du 310°, 06 noeuds
270V340 vent de direction variable entre 270° et 340°
CAVOK Ceiling And Visibility OK
- Visibilité de 10 Km ou plus
- Pas de nuage au-dessous de 1500m ou au-dessous de l'altitude minimale du secteur la plus élevée (si>1500m) et absence de CB
- pas de temps présent significatif
11/03 température 11°C, point de rosée 03°C
 soit une humidité relative de 58%
Q1033 la pression au niveau de la mer (QNH) est de 1033 hPa
NOSIG Pas de changement significatif prévu au cours des deux heures suivant l'heure de l'observation